sensor_id;sensor_type;location;lat;lon;timestamp;temperature;humidity
78438;SHT31;67736;51.978;5.656;2023-07-29T00:00:43;21.3;68.7
78438;SHT31;67736;51.978;5.656;2023-07-29T00:03:13;21.3;68.6
78438;SHT31;67736;51.978;5.656;2023-07-29T00:05:43;21.3;68.7
78438;SHT31;67736;51.978;5.656;2023-07-29T00:08:13;21.2;68.7
78438;SHT31;67736;51.978;5.656;2023-07-29T00:10:42;21.2;68.8
78438;SHT31;67736;51.978;5.656;2023-07-29T00:13:12;21.2;68.4
78438;SHT31;67736;51.978;5.656;2023-07-29T00:15:41;21.2;68.5
78438;SHT31;67736;51.978;5.656;2023-07-29T00:18:11;21.1;68.6
78438;SHT31;67736;51.978;5.656;2023-07-29T00:20:40;21.1;68.8
78438;SHT31;67736;51.978;5.656;2023-07-29T00:23:11;21.1;68.9
78438;SHT31;67736;51.978;5.656;2023-07-29T00:25:40;21.0;68.9
78438;SHT31;67736;51.978;5.656;2023-07-29T00:28:11;21.0;68.7
78438;SHT31;67736;51.978;5.656;2023-07-29T00:30:40;21.0;68.8
78438;SHT31;67736;51.978;5.656;2023-07-29T00:33:10;21.0;68.8
78438;SHT31;67736;51.978;5.656;2023-07-29T00:35:39;21.0;69.1
78438;SHT31;67736;51.978;5.656;2023-07-29T00:38:09;20.9;69.2
78438;SHT31;67736;51.978;5.656;2023-07-29T00:40:38;20.9;68.9
78438;SHT31;67736;51.978;5.656;2023-07-29T00:43:10;20.9;68.8
78438;SHT31;67736;51.978;5.656;2023-07-29T00:45:43;20.8;68.7
78438;SHT31;67736;51.978;5.656;2023-07-29T00:48:16;20.8;68.9
78438;SHT31;67736;51.978;5.656;2023-07-29T00:50:46;20.8;69.0
78438;SHT31;67736;51.978;5.656;2023-07-29T00:53:16;20.7;69.2
78438;SHT31;67736;51.978;5.656;2023-07-29T00:55:46;20.7;69.2
78438;SHT31;67736;51.978;5.656;2023-07-29T00:58:15;20.7;69.1
78438;SHT31;67736;51.978;5.656;2023-07-29T01:00:45;20.7;69.5
78438;SHT31;67736;51.978;5.656;2023-07-29T01:03:15;20.7;69.8
78438;SHT31;67736;51.978;5.656;2023-07-29T01:05:53;20.7;70.2
78438;SHT31;67736;51.978;5.656;2023-07-29T01:08:33;20.6;70.2
78438;SHT31;67736;51.978;5.656;2023-07-29T01:11:15;20.6;70.2
78438;SHT31;67736;51.978;5.656;2023-07-29T01:13:53;20.6;70.3
78438;SHT31;67736;51.978;5.656;2023-07-29T01:16:32;20.6;70.2
78438;SHT31;67736;51.978;5.656;2023-07-29T01:19:06;20.6;70.3
78438;SHT31;67736;51.978;5.656;2023-07-29T01:21:37;20.5;70.5
78438;SHT31;67736;51.978;5.656;2023-07-29T01:24:07;20.5;70.6
78438;SHT31;67736;51.978;5.656;2023-07-29T01:26:37;20.5;70.9
78438;SHT31;67736;51.978;5.656;2023-07-29T01:29:06;20.5;71.1
78438;SHT31;67736;51.978;5.656;2023-07-29T01:31:43;20.5;71.4
78438;SHT31;67736;51.978;5.656;2023-07-29T01:34:20;20.5;71.6
78438;SHT31;67736;51.978;5.656;2023-07-29T01:36:54;20.5;71.6
78438;SHT31;67736;51.978;5.656;2023-07-29T01:39:29;20.5;71.8
78438;SHT31;67736;51.978;5.656;2023-07-29T01:42:01;20.5;71.9
78438;SHT31;67736;51.978;5.656;2023-07-29T01:44:32;20.5;72.1
78438;SHT31;67736;51.978;5.656;2023-07-29T01:47:02;20.5;72.4
78438;SHT31;67736;51.978;5.656;2023-07-29T01:49:32;20.5;72.5
78438;SHT31;67736;51.978;5.656;2023-07-29T01:52:01;20.6;72.6
78438;SHT31;67736;51.978;5.656;2023-07-29T01:54:31;20.6;72.7
78438;SHT31;67736;51.978;5.656;2023-07-29T01:57:00;20.6;72.8
78438;SHT31;67736;51.978;5.656;2023-07-29T01:59:30;20.6;72.8
78438;SHT31;67736;51.978;5.656;2023-07-29T02:02:00;20.6;72.8
78438;SHT31;67736;51.978;5.656;2023-07-29T02:04:30;20.6;72.8
78438;SHT31;67736;51.978;5.656;2023-07-29T02:06:59;20.7;72.9
78438;SHT31;67736;51.978;5.656;2023-07-29T02:09:29;20.7;72.7
78438;SHT31;67736;51.978;5.656;2023-07-29T02:12:02;20.7;72.6
78438;SHT31;67736;51.978;5.656;2023-07-29T02:14:31;20.7;72.7
78438;SHT31;67736;51.978;5.656;2023-07-29T02:17:01;20.7;72.7
78438;SHT31;67736;51.978;5.656;2023-07-29T02:19:31;20.8;72.7
78438;SHT31;67736;51.978;5.656;2023-07-29T02:22:00;20.8;72.7
78438;SHT31;67736;51.978;5.656;2023-07-29T02:24:31;20.8;72.8
78438;SHT31;67736;51.978;5.656;2023-07-29T02:27:00;20.8;72.8
78438;SHT31;67736;51.978;5.656;2023-07-29T02:29:30;20.8;72.8
78438;SHT31;67736;51.978;5.656;2023-07-29T02:32:00;20.8;72.9
78438;SHT31;67736;51.978;5.656;2023-07-29T02:34:31;20.8;72.9
78438;SHT31;67736;51.978;5.656;2023-07-29T02:37:01;20.8;73.0
78438;SHT31;67736;51.978;5.656;2023-07-29T02:39:30;20.8;73.1
78438;SHT31;67736;51.978;5.656;2023-07-29T02:42:00;20.9;73.0
78438;SHT31;67736;51.978;5.656;2023-07-29T02:44:29;20.9;73.0
78438;SHT31;67736;51.978;5.656;2023-07-29T02:46:59;20.9;72.9
78438;SHT31;67736;51.978;5.656;2023-07-29T02:49:30;20.9;72.7
78438;SHT31;67736;51.978;5.656;2023-07-29T02:52:00;20.9;72.5
78438;SHT31;67736;51.978;5.656;2023-07-29T02:54:29;20.9;72.3
78438;SHT31;67736;51.978;5.656;2023-07-29T02:56:59;20.9;71.6
78438;SHT31;67736;51.978;5.656;2023-07-29T02:59:28;20.9;71.2
78438;SHT31;67736;51.978;5.656;2023-07-29T03:01:58;20.9;70.8
78438;SHT31;67736;51.978;5.656;2023-07-29T03:04:27;20.9;70.8
78438;SHT31;67736;51.978;5.656;2023-07-29T03:06:57;20.9;70.4
78438;SHT31;67736;51.978;5.656;2023-07-29T03:09:27;20.8;70.2
78438;SHT31;67736;51.978;5.656;2023-07-29T03:11:56;20.8;70.3
78438;SHT31;67736;51.978;5.656;2023-07-29T03:14:26;20.8;70.5
78438;SHT31;67736;51.978;5.656;2023-07-29T03:16:56;20.8;70.3
78438;SHT31;67736;51.978;5.656;2023-07-29T03:19:26;20.8;70.3
78438;SHT31;67736;51.978;5.656;2023-07-29T03:21:56;20.8;70.2
78438;SHT31;67736;51.978;5.656;2023-07-29T03:24:25;20.8;70.2
78438;SHT31;67736;51.978;5.656;2023-07-29T03:26:56;20.8;70.1
78438;SHT31;67736;51.978;5.656;2023-07-29T03:29:25;20.8;70.1
78438;SHT31;67736;51.978;5.656;2023-07-29T03:31:55;20.8;69.8
78438;SHT31;67736;51.978;5.656;2023-07-29T03:34:24;20.7;70.0
78438;SHT31;67736;51.978;5.656;2023-07-29T03:36:54;20.7;69.7
78438;SHT31;67736;51.978;5.656;2023-07-29T03:39:24;20.7;69.6
78438;SHT31;67736;51.978;5.656;2023-07-29T03:41:53;20.7;69.6
78438;SHT31;67736;51.978;5.656;2023-07-29T03:44:23;20.7;69.6
78438;SHT31;67736;51.978;5.656;2023-07-29T03:46:53;20.7;69.5
78438;SHT31;67736;51.978;5.656;2023-07-29T03:49:22;20.7;69.3
78438;SHT31;67736;51.978;5.656;2023-07-29T03:51:52;20.7;69.4
78438;SHT31;67736;51.978;5.656;2023-07-29T03:54:21;20.7;69.2
78438;SHT31;67736;51.978;5.656;2023-07-29T03:56:51;20.6;69.0
78438;SHT31;67736;51.978;5.656;2023-07-29T03:59:23;20.6;69.1
78438;SHT31;67736;51.978;5.656;2023-07-29T04:01:52;20.6;69.0
78438;SHT31;67736;51.978;5.656;2023-07-29T04:04:22;20.6;68.6
78438;SHT31;67736;51.978;5.656;2023-07-29T04:06:52;20.6;68.4
78438;SHT31;67736;51.978;5.656;2023-07-29T04:09:22;20.6;68.3
78438;SHT31;67736;51.978;5.656;2023-07-29T04:11:52;20.5;68.1
78438;SHT31;67736;51.978;5.656;2023-07-29T04:14:22;20.5;67.7
78438;SHT31;67736;51.978;5.656;2023-07-29T04:16:51;20.5;67.7
78438;SHT31;67736;51.978;5.656;2023-07-29T04:19:21;20.4;67.2
78438;SHT31;67736;51.978;5.656;2023-07-29T04:21:51;20.4;67.4
78438;SHT31;67736;51.978;5.656;2023-07-29T04:24:20;20.4;66.9
78438;SHT31;67736;51.978;5.656;2023-07-29T04:26:50;20.4;67.0
78438;SHT31;67736;51.978;5.656;2023-07-29T04:29:20;20.4;67.1
78438;SHT31;67736;51.978;5.656;2023-07-29T04:31:50;20.3;66.9
78438;SHT31;67736;51.978;5.656;2023-07-29T04:34:20;20.3;67.5
78438;SHT31;67736;51.978;5.656;2023-07-29T04:36:49;20.3;67.4
78438;SHT31;67736;51.978;5.656;2023-07-29T04:39:19;20.3;67.5
78438;SHT31;67736;51.978;5.656;2023-07-29T04:41:48;20.3;67.9
78438;SHT31;67736;51.978;5.656;2023-07-29T04:44:18;20.3;68.0
78438;SHT31;67736;51.978;5.656;2023-07-29T04:46:48;20.3;68.0
78438;SHT31;67736;51.978;5.656;2023-07-29T04:49:18;20.3;67.6
78438;SHT31;67736;51.978;5.656;2023-07-29T04:51:47;20.3;67.7
78438;SHT31;67736;51.978;5.656;2023-07-29T04:54:16;20.3;67.8
78438;SHT31;67736;51.978;5.656;2023-07-29T04:56:48;20.3;67.7
78438;SHT31;67736;51.978;5.656;2023-07-29T04:59:17;20.3;67.7
78438;SHT31;67736;51.978;5.656;2023-07-29T05:01:47;20.3;67.8
78438;SHT31;67736;51.978;5.656;2023-07-29T05:04:16;20.3;67.6
78438;SHT31;67736;51.978;5.656;2023-07-29T05:06:46;20.3;67.4
78438;SHT31;67736;51.978;5.656;2023-07-29T05:09:17;20.2;67.6
78438;SHT31;67736;51.978;5.656;2023-07-29T05:11:47;20.2;67.8
78438;SHT31;67736;51.978;5.656;2023-07-29T05:14:18;20.2;67.8
78438;SHT31;67736;51.978;5.656;2023-07-29T05:16:47;20.2;67.7
78438;SHT31;67736;51.978;5.656;2023-07-29T05:19:17;20.2;67.8
78438;SHT31;67736;51.978;5.656;2023-07-29T05:21:47;20.2;67.7
78438;SHT31;67736;51.978;5.656;2023-07-29T05:24:17;20.2;67.7
78438;SHT31;67736;51.978;5.656;2023-07-29T05:26:46;20.2;67.8
78438;SHT31;67736;51.978;5.656;2023-07-29T05:29:16;20.1;67.8
78438;SHT31;67736;51.978;5.656;2023-07-29T05:31:45;20.1;68.2
78438;SHT31;67736;51.978;5.656;2023-07-29T05:34:15;20.1;68.0
78438;SHT31;67736;51.978;5.656;2023-07-29T05:36:44;20.1;68.1
78438;SHT31;67736;51.978;5.656;2023-07-29T05:39:14;20.1;67.9
78438;SHT31;67736;51.978;5.656;2023-07-29T05:41:45;20.1;67.8
78438;SHT31;67736;51.978;5.656;2023-07-29T05:44:15;20.1;68.1
78438;SHT31;67736;51.978;5.656;2023-07-29T05:46:44;20.1;68.3
78438;SHT31;67736;51.978;5.656;2023-07-29T05:49:14;20.1;67.9
78438;SHT31;67736;51.978;5.656;2023-07-29T05:51:44;20.1;68.2
78438;SHT31;67736;51.978;5.656;2023-07-29T05:54:14;20.1;68.3
78438;SHT31;67736;51.978;5.656;2023-07-29T05:56:44;20.1;68.2
78438;SHT31;67736;51.978;5.656;2023-07-29T05:59:13;20.1;68.3
78438;SHT31;67736;51.978;5.656;2023-07-29T06:01:43;20.2;67.9
78438;SHT31;67736;51.978;5.656;2023-07-29T06:04:13;20.2;67.9
78438;SHT31;67736;51.978;5.656;2023-07-29T06:06:42;20.2;68.5
78438;SHT31;67736;51.978;5.656;2023-07-29T06:09:12;20.2;68.4
78438;SHT31;67736;51.978;5.656;2023-07-29T06:11:41;20.2;68.3
78438;SHT31;67736;51.978;5.656;2023-07-29T06:14:11;20.2;68.3
78438;SHT31;67736;51.978;5.656;2023-07-29T06:16:42;20.3;68.0
78438;SHT31;67736;51.978;5.656;2023-07-29T06:19:12;20.3;68.7
78438;SHT31;67736;51.978;5.656;2023-07-29T06:21:42;20.4;68.6
78438;SHT31;67736;51.978;5.656;2023-07-29T06:24:12;20.4;68.2
78438;SHT31;67736;51.978;5.656;2023-07-29T06:26:42;20.5;67.9
78438;SHT31;67736;51.978;5.656;2023-07-29T06:29:11;20.5;67.9
78438;SHT31;67736;51.978;5.656;2023-07-29T06:31:41;20.5;67.9
78438;SHT31;67736;51.978;5.656;2023-07-29T06:34:10;20.6;67.3
78438;SHT31;67736;51.978;5.656;2023-07-29T06:36:40;20.6;67.7
78438;SHT31;67736;51.978;5.656;2023-07-29T06:39:09;20.6;67.6
78438;SHT31;67736;51.978;5.656;2023-07-29T06:41:41;20.7;67.8
78438;SHT31;67736;51.978;5.656;2023-07-29T06:44:11;20.7;66.9
78438;SHT31;67736;51.978;5.656;2023-07-29T06:46:41;20.8;67.3
78438;SHT31;67736;51.978;5.656;2023-07-29T06:49:10;20.8;67.7
78438;SHT31;67736;51.978;5.656;2023-07-29T06:51:40;20.9;67.2
78438;SHT31;67736;51.978;5.656;2023-07-29T06:54:11;20.9;67.7
78438;SHT31;67736;51.978;5.656;2023-07-29T06:56:43;21.0;67.3
78438;SHT31;67736;51.978;5.656;2023-07-29T06:59:13;21.0;66.5
78438;SHT31;67736;51.978;5.656;2023-07-29T07:01:43;21.1;66.5
78438;SHT31;67736;51.978;5.656;2023-07-29T07:04:12;21.1;66.8
78438;SHT31;67736;51.978;5.656;2023-07-29T07:06:44;21.2;66.7
78438;SHT31;67736;51.978;5.656;2023-07-29T07:09:13;21.2;66.4
78438;SHT31;67736;51.978;5.656;2023-07-29T07:11:43;21.2;66.3
78438;SHT31;67736;51.978;5.656;2023-07-29T07:14:12;21.3;66.4
78438;SHT31;67736;51.978;5.656;2023-07-29T07:16:42;21.3;66.5
78438;SHT31;67736;51.978;5.656;2023-07-29T07:19:11;21.4;66.8
78438;SHT31;67736;51.978;5.656;2023-07-29T07:21:41;21.4;66.5
78438;SHT31;67736;51.978;5.656;2023-07-29T07:24:11;21.5;66.3
78438;SHT31;67736;51.978;5.656;2023-07-29T07:26:40;21.5;65.7
78438;SHT31;67736;51.978;5.656;2023-07-29T07:29:12;21.6;66.1
78438;SHT31;67736;51.978;5.656;2023-07-29T07:31:51;21.6;65.5
78438;SHT31;67736;51.978;5.656;2023-07-29T07:34:21;21.7;65.2
78438;SHT31;67736;51.978;5.656;2023-07-29T07:36:51;21.7;65.4
78438;SHT31;67736;51.978;5.656;2023-07-29T07:39:21;21.7;65.3
78438;SHT31;67736;51.978;5.656;2023-07-29T07:41:52;21.8;64.6
78438;SHT31;67736;51.978;5.656;2023-07-29T07:44:21;21.8;64.6
78438;SHT31;67736;51.978;5.656;2023-07-29T07:46:53;21.8;64.7
78438;SHT31;67736;51.978;5.656;2023-07-29T07:49:23;21.9;65.2
78438;SHT31;67736;51.978;5.656;2023-07-29T07:51:57;21.9;65.6
78438;SHT31;67736;51.978;5.656;2023-07-29T07:54:30;22.0;64.7
78438;SHT31;67736;51.978;5.656;2023-07-29T07:56:59;22.0;65.3
78438;SHT31;67736;51.978;5.656;2023-07-29T07:59:29;22.0;64.6
78438;SHT31;67736;51.978;5.656;2023-07-29T08:02:01;22.1;64.9
78438;SHT31;67736;51.978;5.656;2023-07-29T08:04:30;22.1;65.2
78438;SHT31;67736;51.978;5.656;2023-07-29T08:07:00;22.2;64.9
78438;SHT31;67736;51.978;5.656;2023-07-29T08:09:29;22.3;64.5
78438;SHT31;67736;51.978;5.656;2023-07-29T08:11:59;22.3;64.6
78438;SHT31;67736;51.978;5.656;2023-07-29T08:14:28;22.4;64.3
78438;SHT31;67736;51.978;5.656;2023-07-29T08:16:58;22.5;63.5
78438;SHT31;67736;51.978;5.656;2023-07-29T08:19:29;22.5;63.5
78438;SHT31;67736;51.978;5.656;2023-07-29T08:21:58;22.6;63.0
78438;SHT31;67736;51.978;5.656;2023-07-29T08:24:28;22.6;63.5
78438;SHT31;67736;51.978;5.656;2023-07-29T08:26:58;22.6;63.0
78438;SHT31;67736;51.978;5.656;2023-07-29T08:29:27;22.7;63.4
78438;SHT31;67736;51.978;5.656;2023-07-29T08:31:57;22.7;62.4
78438;SHT31;67736;51.978;5.656;2023-07-29T08:34:26;22.8;62.1
78438;SHT31;67736;51.978;5.656;2023-07-29T08:36:56;22.8;62.7
78438;SHT31;67736;51.978;5.656;2023-07-29T08:39:25;22.9;61.8
78438;SHT31;67736;51.978;5.656;2023-07-29T08:41:59;22.9;61.5
78438;SHT31;67736;51.978;5.656;2023-07-29T08:44:37;23.0;61.8
78438;SHT31;67736;51.978;5.656;2023-07-29T08:47:09;23.1;61.5
78438;SHT31;67736;51.978;5.656;2023-07-29T08:49:41;23.2;60.7
78438;SHT31;67736;51.978;5.656;2023-07-29T08:52:11;23.2;59.7
78438;SHT31;67736;51.978;5.656;2023-07-29T08:54:44;23.3;59.0
78438;SHT31;67736;51.978;5.656;2023-07-29T08:57:15;23.3;59.7
78438;SHT31;67736;51.978;5.656;2023-07-29T08:59:46;23.3;59.9
78438;SHT31;67736;51.978;5.656;2023-07-29T09:02:15;23.4;59.6
78438;SHT31;67736;51.978;5.656;2023-07-29T09:04:45;23.4;59.5
78438;SHT31;67736;51.978;5.656;2023-07-29T09:07:17;23.4;59.7
78438;SHT31;67736;51.978;5.656;2023-07-29T09:09:46;23.4;59.1
78438;SHT31;67736;51.978;5.656;2023-07-29T09:12:16;23.4;58.5
78438;SHT31;67736;51.978;5.656;2023-07-29T09:14:46;23.4;58.4
78438;SHT31;67736;51.978;5.656;2023-07-29T09:17:15;23.4;58.8
78438;SHT31;67736;51.978;5.656;2023-07-29T09:19:49;23.4;58.7
78438;SHT31;67736;51.978;5.656;2023-07-29T09:22:20;23.4;59.1
78438;SHT31;67736;51.978;5.656;2023-07-29T09:24:50;23.4;59.0
78438;SHT31;67736;51.978;5.656;2023-07-29T09:27:27;23.5;59.3
78438;SHT31;67736;51.978;5.656;2023-07-29T09:29:59;23.5;59.1
78438;SHT31;67736;51.978;5.656;2023-07-29T09:32:30;23.6;58.7
78438;SHT31;67736;51.978;5.656;2023-07-29T09:34:59;23.7;58.4
78438;SHT31;67736;51.978;5.656;2023-07-29T09:37:29;23.8;57.0
78438;SHT31;67736;51.978;5.656;2023-07-29T09:39:58;23.9;56.9
78438;SHT31;67736;51.978;5.656;2023-07-29T09:42:28;24.0;57.1
78438;SHT31;67736;51.978;5.656;2023-07-29T09:44:59;24.1;57.0
78438;SHT31;67736;51.978;5.656;2023-07-29T09:47:29;24.2;55.9
78438;SHT31;67736;51.978;5.656;2023-07-29T09:50:01;24.4;55.6
78438;SHT31;67736;51.978;5.656;2023-07-29T09:52:31;24.6;55.4
78438;SHT31;67736;51.978;5.656;2023-07-29T09:55:01;24.8;54.4
78438;SHT31;67736;51.978;5.656;2023-07-29T09:57:30;24.9;54.1
78438;SHT31;67736;51.978;5.656;2023-07-29T10:00:00;25.0;54.0
78438;SHT31;67736;51.978;5.656;2023-07-29T10:02:32;25.2;53.2
78438;SHT31;67736;51.978;5.656;2023-07-29T10:05:03;25.3;53.5
78438;SHT31;67736;51.978;5.656;2023-07-29T10:07:34;25.4;53.5
78438;SHT31;67736;51.978;5.656;2023-07-29T10:10:07;25.6;54.3
78438;SHT31;67736;51.978;5.656;2023-07-29T10:12:39;25.7;52.8
78438;SHT31;67736;51.978;5.656;2023-07-29T10:15:12;25.8;52.8
78438;SHT31;67736;51.978;5.656;2023-07-29T10:17:42;25.9;51.8
78438;SHT31;67736;51.978;5.656;2023-07-29T10:20:12;25.9;52.2
78438;SHT31;67736;51.978;5.656;2023-07-29T10:22:44;25.9;51.1
78438;SHT31;67736;51.978;5.656;2023-07-29T10:25:18;26.0;51.8
78438;SHT31;67736;51.978;5.656;2023-07-29T10:27:53;26.0;51.0
78438;SHT31;67736;51.978;5.656;2023-07-29T10:30:25;26.0;51.3
78438;SHT31;67736;51.978;5.656;2023-07-29T10:32:59;26.0;51.9
78438;SHT31;67736;51.978;5.656;2023-07-29T10:35:32;26.1;52.1
78438;SHT31;67736;51.978;5.656;2023-07-29T10:38:03;26.1;52.3
78438;SHT31;67736;51.978;5.656;2023-07-29T10:40:46;26.1;51.3
78438;SHT31;67736;51.978;5.656;2023-07-29T10:43:27;26.2;51.6
78438;SHT31;67736;51.978;5.656;2023-07-29T10:45:59;26.2;50.8
78438;SHT31;67736;51.978;5.656;2023-07-29T10:48:43;26.2;50.9
78438;SHT31;67736;51.978;5.656;2023-07-29T10:51:26;26.2;50.9
78438;SHT31;67736;51.978;5.656;2023-07-29T10:54:01;26.1;51.6
78438;SHT31;67736;51.978;5.656;2023-07-29T10:56:33;26.1;51.4
78438;SHT31;67736;51.978;5.656;2023-07-29T10:59:31;26.1;50.5
78438;SHT31;67736;51.978;5.656;2023-07-29T11:01:59;26.0;51.0
78438;SHT31;67736;51.978;5.656;2023-07-29T11:04:30;25.9;51.4
78438;SHT31;67736;51.978;5.656;2023-07-29T11:07:43;25.8;51.7
78438;SHT31;67736;51.978;5.656;2023-07-29T11:10:15;25.7;52.2
78438;SHT31;67736;51.978;5.656;2023-07-29T11:12:48;25.6;52.2
78438;SHT31;67736;51.978;5.656;2023-07-29T11:15:21;25.5;52.7
78438;SHT31;67736;51.978;5.656;2023-07-29T11:17:53;25.4;53.2
78438;SHT31;67736;51.978;5.656;2023-07-29T11:20:25;25.4;53.7
78438;SHT31;67736;51.978;5.656;2023-07-29T11:22:56;25.3;53.7
78438;SHT31;67736;51.978;5.656;2023-07-29T11:25:30;25.2;54.3
78438;SHT31;67736;51.978;5.656;2023-07-29T11:28:01;25.1;54.5
78438;SHT31;67736;51.978;5.656;2023-07-29T11:30:30;25.0;55.4
78438;SHT31;67736;51.978;5.656;2023-07-29T11:33:01;24.8;55.6
78438;SHT31;67736;51.978;5.656;2023-07-29T11:35:34;24.6;57.9
78438;SHT31;67736;51.978;5.656;2023-07-29T11:38:04;24.4;58.5
78438;SHT31;67736;51.978;5.656;2023-07-29T11:40:34;24.3;58.3
78438;SHT31;67736;51.978;5.656;2023-07-29T11:43:04;24.1;59.6
78438;SHT31;67736;51.978;5.656;2023-07-29T11:45:34;24.0;59.9
78438;SHT31;67736;51.978;5.656;2023-07-29T11:48:04;23.9;60.3
78438;SHT31;67736;51.978;5.656;2023-07-29T11:50:35;23.8;60.8
78438;SHT31;67736;51.978;5.656;2023-07-29T11:53:05;23.7;62.0
78438;SHT31;67736;51.978;5.656;2023-07-29T11:55:34;23.7;62.1
78438;SHT31;67736;51.978;5.656;2023-07-29T11:58:04;23.6;62.4
78438;SHT31;67736;51.978;5.656;2023-07-29T12:00:36;23.5;62.5
78438;SHT31;67736;51.978;5.656;2023-07-29T12:03:09;23.4;63.3
78438;SHT31;67736;51.978;5.656;2023-07-29T12:05:40;23.3;63.8
78438;SHT31;67736;51.978;5.656;2023-07-29T12:08:12;23.2;63.5
78438;SHT31;67736;51.978;5.656;2023-07-29T12:10:42;23.2;64.7
78438;SHT31;67736;51.978;5.656;2023-07-29T12:13:14;23.1;64.7
78438;SHT31;67736;51.978;5.656;2023-07-29T12:15:44;23.0;64.6
78438;SHT31;67736;51.978;5.656;2023-07-29T12:18:13;23.0;66.3
78438;SHT31;67736;51.978;5.656;2023-07-29T12:20:45;22.9;67.7
78438;SHT31;67736;51.978;5.656;2023-07-29T12:23:14;22.9;67.1
78438;SHT31;67736;51.978;5.656;2023-07-29T12:25:44;22.9;66.4
78438;SHT31;67736;51.978;5.656;2023-07-29T12:28:16;22.8;66.8
78438;SHT31;67736;51.978;5.656;2023-07-29T12:30:48;22.8;66.3
78438;SHT31;67736;51.978;5.656;2023-07-29T12:33:31;22.8;66.8
78438;SHT31;67736;51.978;5.656;2023-07-29T12:36:02;22.9;66.4
78438;SHT31;67736;51.978;5.656;2023-07-29T12:38:32;22.9;66.9
78438;SHT31;67736;51.978;5.656;2023-07-29T12:41:01;22.9;66.6
78438;SHT31;67736;51.978;5.656;2023-07-29T12:43:31;23.0;68.6
78438;SHT31;67736;51.978;5.656;2023-07-29T12:46:02;23.0;67.3
78438;SHT31;67736;51.978;5.656;2023-07-29T12:48:32;23.1;66.7
78438;SHT31;67736;51.978;5.656;2023-07-29T12:51:03;23.2;67.1
78438;SHT31;67736;51.978;5.656;2023-07-29T12:53:32;23.2;68.1
78438;SHT31;67736;51.978;5.656;2023-07-29T12:56:05;23.3;66.4
78438;SHT31;67736;51.978;5.656;2023-07-29T12:58:35;23.4;65.8
78438;SHT31;67736;51.978;5.656;2023-07-29T13:01:05;23.5;65.6
78438;SHT31;67736;51.978;5.656;2023-07-29T13:03:34;23.5;65.0
78438;SHT31;67736;51.978;5.656;2023-07-29T13:06:04;23.6;65.3
78438;SHT31;67736;51.978;5.656;2023-07-29T13:08:34;23.7;66.6
78438;SHT31;67736;51.978;5.656;2023-07-29T13:11:04;23.7;65.3
78438;SHT31;67736;51.978;5.656;2023-07-29T13:13:34;23.8;65.9
78438;SHT31;67736;51.978;5.656;2023-07-29T13:16:04;23.9;64.7
78438;SHT31;67736;51.978;5.656;2023-07-29T13:18:34;24.0;64.6
78438;SHT31;67736;51.978;5.656;2023-07-29T13:21:03;24.0;64.1
78438;SHT31;67736;51.978;5.656;2023-07-29T13:23:33;24.1;64.2
78438;SHT31;67736;51.978;5.656;2023-07-29T13:26:04;24.1;63.8
78438;SHT31;67736;51.978;5.656;2023-07-29T13:28:34;24.2;63.5
78438;SHT31;67736;51.978;5.656;2023-07-29T13:31:03;24.2;65.2
78438;SHT31;67736;51.978;5.656;2023-07-29T13:33:33;24.3;65.3
78438;SHT31;67736;51.978;5.656;2023-07-29T13:36:05;24.3;63.8
78438;SHT31;67736;51.978;5.656;2023-07-29T13:38:37;24.3;64.3
78438;SHT31;67736;51.978;5.656;2023-07-29T13:41:07;24.4;65.6
78438;SHT31;67736;51.978;5.656;2023-07-29T13:43:36;24.4;65.3
78438;SHT31;67736;51.978;5.656;2023-07-29T13:46:06;24.4;65.6
78438;SHT31;67736;51.978;5.656;2023-07-29T13:48:35;24.4;65.6
78438;SHT31;67736;51.978;5.656;2023-07-29T13:51:04;24.5;62.2
78438;SHT31;67736;51.978;5.656;2023-07-29T13:53:34;24.5;61.0
78438;SHT31;67736;51.978;5.656;2023-07-29T13:56:04;24.5;61.3
78438;SHT31;67736;51.978;5.656;2023-07-29T13:58:35;24.5;62.5
78438;SHT31;67736;51.978;5.656;2023-07-29T14:01:05;24.5;61.4
78438;SHT31;67736;51.978;5.656;2023-07-29T14:03:34;24.5;60.6
78438;SHT31;67736;51.978;5.656;2023-07-29T14:06:03;24.6;61.1
78438;SHT31;67736;51.978;5.656;2023-07-29T14:08:33;24.6;61.3
78438;SHT31;67736;51.978;5.656;2023-07-29T14:11:03;24.6;61.5
78438;SHT31;67736;51.978;5.656;2023-07-29T14:13:32;24.7;60.1
78438;SHT31;67736;51.978;5.656;2023-07-29T14:16:03;24.7;60.9
78438;SHT31;67736;51.978;5.656;2023-07-29T14:18:34;24.7;60.8
78438;SHT31;67736;51.978;5.656;2023-07-29T14:21:04;24.7;61.4
78438;SHT31;67736;51.978;5.656;2023-07-29T14:23:33;24.7;62.3
78438;SHT31;67736;51.978;5.656;2023-07-29T14:26:03;24.6;62.5
78438;SHT31;67736;51.978;5.656;2023-07-29T14:28:32;24.6;62.4
78438;SHT31;67736;51.978;5.656;2023-07-29T14:31:02;24.6;62.1
78438;SHT31;67736;51.978;5.656;2023-07-29T14:33:32;24.6;62.5
78438;SHT31;67736;51.978;5.656;2023-07-29T14:36:01;24.5;62.1
78438;SHT31;67736;51.978;5.656;2023-07-29T14:38:31;24.5;63.0
78438;SHT31;67736;51.978;5.656;2023-07-29T14:41:01;24.5;63.8
78438;SHT31;67736;51.978;5.656;2023-07-29T14:43:31;24.4;63.2
78438;SHT31;67736;51.978;5.656;2023-07-29T14:46:01;24.5;62.3
78438;SHT31;67736;51.978;5.656;2023-07-29T14:48:31;24.5;61.7
78438;SHT31;67736;51.978;5.656;2023-07-29T14:51:00;24.5;62.5
78438;SHT31;67736;51.978;5.656;2023-07-29T14:53:30;24.5;59.0
78438;SHT31;67736;51.978;5.656;2023-07-29T14:55:59;24.5;60.9
78438;SHT31;67736;51.978;5.656;2023-07-29T14:58:29;24.5;60.2
78438;SHT31;67736;51.978;5.656;2023-07-29T15:01:02;24.6;59.0
78438;SHT31;67736;51.978;5.656;2023-07-29T15:03:32;24.6;58.8
78438;SHT31;67736;51.978;5.656;2023-07-29T15:06:03;24.7;57.1
78438;SHT31;67736;51.978;5.656;2023-07-29T15:08:32;24.8;54.6
78438;SHT31;67736;51.978;5.656;2023-07-29T15:11:02;24.8;54.9
78438;SHT31;67736;51.978;5.656;2023-07-29T15:13:31;24.9;53.7
78438;SHT31;67736;51.978;5.656;2023-07-29T15:16:01;24.9;55.1
78438;SHT31;67736;51.978;5.656;2023-07-29T15:18:30;24.9;54.8
78438;SHT31;67736;51.978;5.656;2023-07-29T15:21:01;24.9;54.3
78438;SHT31;67736;51.978;5.656;2023-07-29T15:23:32;24.9;54.0
78438;SHT31;67736;51.978;5.656;2023-07-29T15:26:01;25.0;55.1
78438;SHT31;67736;51.978;5.656;2023-07-29T15:28:31;25.0;55.2
78438;SHT31;67736;51.978;5.656;2023-07-29T15:31:01;25.0;54.3
78438;SHT31;67736;51.978;5.656;2023-07-29T15:33:31;25.1;54.1
78438;SHT31;67736;51.978;5.656;2023-07-29T15:36:01;25.1;52.7
78438;SHT31;67736;51.978;5.656;2023-07-29T15:38:31;25.1;53.9
78438;SHT31;67736;51.978;5.656;2023-07-29T15:41:02;25.1;53.0
78438;SHT31;67736;51.978;5.656;2023-07-29T15:43:32;25.1;53.5
78438;SHT31;67736;51.978;5.656;2023-07-29T15:46:01;25.1;52.7
78438;SHT31;67736;51.978;5.656;2023-07-29T15:48:31;25.1;54.4
78438;SHT31;67736;51.978;5.656;2023-07-29T15:51:01;25.2;54.5
78438;SHT31;67736;51.978;5.656;2023-07-29T15:53:30;25.2;53.1
78438;SHT31;67736;51.978;5.656;2023-07-29T15:56:00;25.2;52.8
78438;SHT31;67736;51.978;5.656;2023-07-29T15:58:30;25.3;53.0
78438;SHT31;67736;51.978;5.656;2023-07-29T16:00:59;25.3;53.2
78438;SHT31;67736;51.978;5.656;2023-07-29T16:03:30;25.3;53.2
78438;SHT31;67736;51.978;5.656;2023-07-29T16:06:00;25.3;54.0
78438;SHT31;67736;51.978;5.656;2023-07-29T16:08:30;25.3;53.7
78438;SHT31;67736;51.978;5.656;2023-07-29T16:11:00;25.3;53.1
78438;SHT31;67736;51.978;5.656;2023-07-29T16:13:29;25.3;52.3
78438;SHT31;67736;51.978;5.656;2023-07-29T16:15:59;25.3;52.5
78438;SHT31;67736;51.978;5.656;2023-07-29T16:18:30;25.3;52.5
78438;SHT31;67736;51.978;5.656;2023-07-29T16:21:00;25.3;52.7
78438;SHT31;67736;51.978;5.656;2023-07-29T16:23:32;25.3;53.0